الصفحة الرئيسية
METAR-TAF:

METAR-TAF

مطار :

NWS Office

بونبي, مايكرونيزيا

دائرة عرض: 06-58N, خط طول: 158-13E, ارتفاع: 39 متر

مراقبة الطقس الحالي

تاريخ ووقت الإصدار 53 دقيقة قبل الساعة 16:54UTC
ريح 7 عقدة من الشمال الشرقي
درجة الحرارة 28°درجة مئوية
الرطوبة 74%
ضغط 1007 hPa
الرؤية: 24.1 كم
غيوم متفرقة على ارتفاع 1800 قدم
ملبد بالغيوم على ارتفاع 30000 قدم

METAR: PTTP 151654Z 05007KT 15SM SCT018 OVC300 28/23 A2973 RMK SLP068 T02750227

زمن: 04:47 (17:47 UTC)


TAF: مفقودة

أرصاد الطقس والتوقعات من أكثر من 4000 مطار (تقارير الطقس للمطار METAR والتنبؤ بالطقس بالمطارTAF).

المحطات المتاحة هي النقط الصفراء والحمراء على الخريطة.

حرك المؤشر فوق النقطة لمعرفة اسم المحطة.

ثم انقر لمعرفة أرصاد وتوقعات الطقس.

لتغيير الخارطة: اضغط على الأزرار الخضراء مع رمز الصليب الأسود للتكبير. على الزر الأخضر مع شرطة للتصغير، أو على الأسهم الخضراء للخرائط المجاورة.


METAR-TAF: